Time;durP1;ratioP1;P1;durP2;ratioP2;P2;SDS_P1;SDS_P2;PMS_P1;PMS_P2;Temp;Humidity;BMP_temperature;BMP_pressure;BME280_temperature;BME280_humidity;BME280_pressure;Samples;Min_cycle;Max_cycle;Signal;HPM_P1;HPM_P2
2020/12/09 00:01:49;;;;;;;;;;;20.30;93.20;;;;;;6161459;23;19920;-81
2020/12/09 00:04:20;;;;;;;;;;;20.30;93.30;;;;;;6169735;23;20044;-82
2020/12/09 00:06:48;;;;;;;;;;;20.30;93.40;;;;;;6181890;23;19916;-83
2020/12/09 00:09:17;;;;;;;;;;;20.30;93.30;;;;;;6158768;23;20355;-82
2020/12/09 00:11:43;;;;;;;;;;;20.30;93.30;;;;;;6159565;23;19928;-82
2020/12/09 00:14:18;;;;;;;;;;;20.30;93.40;;;;;;6157121;23;19931;-82
2020/12/09 00:16:46;;;;;;;;;;;20.30;93.60;;;;;;6167774;23;19927;-81
2020/12/09 00:19:14;;;;;;;;;;;20.30;93.40;;;;;;6158033;23;20296;-84
2020/12/09 00:21:44;;;;;;;;;;;20.30;93.40;;;;;;6161487;23;19930;-83
2020/12/09 00:24:11;;;;;;;;;;;20.30;93.40;;;;;;6141114;23;19918;-81
2020/12/09 00:26:37;;;;;;;;;;;20.30;93.40;;;;;;6160549;23;19923;-82
2020/12/09 00:29:05;;;;;;;;;;;20.30;93.40;;;;;;6156922;23;19916;-82
2020/12/09 00:31:32;;;;;;;;;;;20.30;93.40;;;;;;6160447;23;20267;-82
2020/12/09 00:34:00;;;;;;;;;;;20.30;93.40;;;;;;6159612;23;19917;-81
2020/12/09 00:36:28;;;;;;;;;;;20.20;93.40;;;;;;6166012;23;19920;-81
2020/12/09 00:38:55;;;;;;;;;;;20.30;93.50;;;;;;6166047;23;19920;-83
2020/12/09 00:41:26;;;;;;;;;;;20.20;93.40;;;;;;6167434;23;19921;-81
2020/12/09 00:43:53;;;;;;;;;;;20.20;93.50;;;;;;6165562;23;19917;-81
2020/12/09 00:46:21;;;;;;;;;;;20.20;93.50;;;;;;6169377;23;19922;-82
2020/12/09 00:48:52;;;;;;;;;;;20.20;93.50;;;;;;6169799;23;19926;-82
2020/12/09 00:51:23;;;;;;;;;;;20.20;93.50;;;;;;6196222;23;19923;-85
2020/12/09 00:53:51;;;;;;;;;;;20.10;93.50;;;;;;6169131;23;20090;-80
2020/12/09 00:56:22;;;;;;;;;;;20.10;93.50;;;;;;6170425;23;19920;-79
2020/12/09 00:58:49;;;;;;;;;;;20.10;93.50;;;;;;6171176;23;19979;-82
2020/12/09 01:01:16;;;;;;;;;;;20.10;93.60;;;;;;6169510;23;20348;-79
2020/12/09 01:03:51;;;;;;;;;;;20.10;93.60;;;;;;6193914;23;19916;-79
2020/12/09 01:06:20;;;;;;;;;;;20.10;93.60;;;;;;6171043;23;19916;-79
2020/12/09 01:08:49;;;;;;;;;;;20.10;93.60;;;;;;6169794;23;19927;-81
2020/12/09 01:11:18;;;;;;;;;;;20.10;93.50;;;;;;6145616;23;19925;-80
2020/12/09 01:13:44;;;;;;;;;;;20.20;93.50;;;;;;6168192;23;19916;-83
2020/12/09 01:16:15;;;;;;;;;;;20.20;93.50;;;;;;6170376;23;19920;-84
2020/12/09 01:18:42;;;;;;;;;;;20.20;93.40;;;;;;6190363;23;19920;-83
2020/12/09 01:21:10;;;;;;;;;;;20.20;93.40;;;;;;6162849;23;19920;-84
2020/12/09 01:23:36;;;;;;;;;;;20.20;93.40;;;;;;6170245;23;19931;-80
2020/12/09 01:26:08;;;;;;;;;;;20.20;93.40;;;;;;6171833;23;19920;-80
2020/12/09 01:28:34;;;;;;;;;;;20.10;93.40;;;;;;6194435;23;19948;-80
2020/12/09 01:31:01;;;;;;;;;;;20.10;93.40;;;;;;6172030;23;19917;-80
2020/12/09 01:33:28;;;;;;;;;;;20.10;93.40;;;;;;6171069;23;19916;-81
2020/12/09 01:35:55;;;;;;;;;;;20.10;93.50;;;;;;6170013;23;19920;-81
2020/12/09 01:38:25;;;;;;;;;;;20.00;93.50;;;;;;6168148;23;19927;-81
2020/12/09 01:40:54;;;;;;;;;;;20.00;93.50;;;;;;6168548;23;19917;-80
2020/12/09 01:43:21;;;;;;;;;;;19.90;93.60;;;;;;6168616;23;19930;-80
2020/12/09 01:45:48;;;;;;;;;;;19.90;93.70;;;;;;6170852;23;19917;-80
2020/12/09 01:48:15;;;;;;;;;;;19.90;93.70;;;;;;6165709;23;19916;-80
2020/12/09 01:50:44;;;;;;;;;;;19.80;93.80;;;;;;6166949;23;20350;-79
2020/12/09 01:53:11;;;;;;;;;;;19.80;93.90;;;;;;6168391;23;20313;-79
2020/12/09 01:55:38;;;;;;;;;;;19.80;93.90;;;;;;6170478;23;19927;-79
2020/12/09 01:58:05;;;;;;;;;;;19.70;94.00;;;;;;6168420;23;19916;-80
2020/12/09 02:00:35;;;;;;;;;;;19.70;94.00;;;;;;6166162;23;19932;-79
2020/12/09 02:03:02;;;;;;;;;;;19.70;94.00;;;;;;6173590;23;19916;-83
2020/12/09 02:05:29;;;;;;;;;;;19.70;94.10;;;;;;6172931;23;19927;-83
2020/12/09 02:07:58;;;;;;;;;;;19.70;94.10;;;;;;6174016;23;19920;-84
2020/12/09 02:10:28;;;;;;;;;;;19.70;94.10;;;;;;6173768;23;19911;-83
2020/12/09 02:12:55;;;;;;;;;;;19.60;94.20;;;;;;6196906;23;19930;-83
2020/12/09 02:15:22;;;;;;;;;;;19.60;94.20;;;;;;6196206;23;19920;-83
2020/12/09 02:17:49;;;;;;;;;;;19.60;94.20;;;;;;6172726;23;19927;-82
2020/12/09 02:20:16;;;;;;;;;;;19.60;94.30;;;;;;6198410;23;20064;-81
2020/12/09 02:22:50;;;;;;;;;;;19.60;94.30;;;;;;6176077;23;19917;-80
2020/12/09 02:29:26;;;;;;;;;;;19.60;94.40;;;;;;6178078;22;19938;-79
2020/12/09 02:31:52;;;;;;;;;;;19.60;94.40;;;;;;6308107;22;19927;-80
2020/12/09 02:34:20;;;;;;;;;;;19.50;94.40;;;;;;6306070;22;19938;-79
2020/12/09 02:36:46;;;;;;;;;;;19.60;94.40;;;;;;6317421;22;19925;-77
2020/12/09 02:39:13;;;;;;;;;;;19.60;94.30;;;;;;6329158;22;20256;-80
2020/12/09 02:41:40;;;;;;;;;;;19.60;94.30;;;;;;6323143;22;19921;-80
2020/12/09 02:44:06;;;;;;;;;;;19.70;94.20;;;;;;6329146;22;19915;-79
2020/12/09 02:46:33;;;;;;;;;;;19.70;94.10;;;;;;6327598;22;19902;-79
2020/12/09 02:49:00;;;;;;;;;;;19.70;94.00;;;;;;6327144;22;19919;-81
2020/12/09 02:51:26;;;;;;;;;;;19.80;93.90;;;;;;6319325;22;19925;-79
2020/12/09 02:53:53;;;;;;;;;;;19.90;93.80;;;;;;6320329;22;19915;-79
2020/12/09 02:56:20;;;;;;;;;;;19.80;93.70;;;;;;6329806;22;19918;-77
2020/12/09 02:58:47;;;;;;;;;;;19.90;93.60;;;;;;6327159;22;19929;-80
2020/12/09 03:01:14;;;;;;;;;;;19.90;93.50;;;;;;6329231;22;19923;-79
2020/12/09 03:03:46;;;;;;;;;;;20.00;93.50;;;;;;6326008;22;20299;-79
2020/12/09 03:06:15;;;;;;;;;;;20.00;93.50;;;;;;6334027;22;19929;-79
2020/12/09 03:08:42;;;;;;;;;;;19.90;93.40;;;;;;6326621;22;19913;-79
2020/12/09 03:11:10;;;;;;;;;;;19.90;93.50;;;;;;6319121;22;19915;-78
2020/12/09 03:13:36;;;;;;;;;;;19.90;93.50;;;;;;6315982;22;19919;-80
2020/12/09 03:16:03;;;;;;;;;;;19.90;93.50;;;;;;6309032;22;19921;-81
2020/12/09 03:21:53;;;;;;;;;;;19.90;93.60;;;;;;6319623;22;19922;-80
2020/12/09 03:24:19;;;;;;;;;;;19.80;93.60;;;;;;6307850;22;19914;-81
2020/12/09 03:26:46;;;;;;;;;;;19.80;93.70;;;;;;6313154;22;19914;-80
2020/12/09 03:29:13;;;;;;;;;;;19.80;93.70;;;;;;6314133;22;19918;-81
2020/12/09 03:31:40;;;;;;;;;;;19.70;93.80;;;;;;6331589;22;19915;-80
2020/12/09 03:34:07;;;;;;;;;;;19.70;93.80;;;;;;6328317;22;19903;-80
2020/12/09 03:36:33;;;;;;;;;;;19.70;93.80;;;;;;6329528;22;19915;-81
2020/12/09 03:39:00;;;;;;;;;;;19.70;93.90;;;;;;6306800;22;19966;-81
2020/12/09 03:41:27;;;;;;;;;;;19.60;93.90;;;;;;6305580;22;19918;-81
2020/12/09 03:43:54;;;;;;;;;;;19.60;94.00;;;;;;6310005;22;19942;-80
2020/12/09 03:46:20;;;;;;;;;;;19.60;94.00;;;;;;6306491;22;19919;-80
2020/12/09 03:48:47;;;;;;;;;;;19.60;94.00;;;;;;6278996;22;20258;-81
2020/12/09 03:51:14;;;;;;;;;;;19.50;94.10;;;;;;6308813;22;19919;-81
2020/12/09 03:53:40;;;;;;;;;;;19.50;94.10;;;;;;6306779;22;19915;-80
2020/12/09 03:56:07;;;;;;;;;;;19.40;94.10;;;;;;6308555;22;19918;-80
2020/12/09 03:58:33;;;;;;;;;;;19.40;94.20;;;;;;6305484;22;20338;-79
2020/12/09 04:01:00;;;;;;;;;;;19.40;94.20;;;;;;6306239;22;19918;-79
2020/12/09 04:03:27;;;;;;;;;;;19.40;94.30;;;;;;6309524;22;19918;-80
2020/12/09 04:05:53;;;;;;;;;;;19.40;94.30;;;;;;6309424;22;20294;-80
2020/12/09 04:08:20;;;;;;;;;;;19.40;94.30;;;;;;6313403;22;19921;-79
2020/12/09 04:10:47;;;;;;;;;;;19.40;94.40;;;;;;6327368;22;19919;-79
2020/12/09 04:13:13;;;;;;;;;;;19.40;94.40;;;;;;6321166;22;20231;-81
2020/12/09 04:15:40;;;;;;;;;;;19.40;94.40;;;;;;6306166;22;19914;-81
2020/12/09 04:18:07;;;;;;;;;;;19.40;94.30;;;;;;6307795;22;19915;-80
2020/12/09 04:20:34;;;;;;;;;;;19.40;94.30;;;;;;6309168;22;19925;-80
2020/12/09 04:23:00;;;;;;;;;;;19.40;94.20;;;;;;6306010;22;19915;-80
2020/12/09 04:25:27;;;;;;;;;;;19.50;94.10;;;;;;6310590;22;19925;-80
2020/12/09 04:27:54;;;;;;;;;;;19.50;94.10;;;;;;6309476;22;20389;-80
2020/12/09 04:30:20;;;;;;;;;;;19.50;94.10;;;;;;6319171;22;19925;-80
2020/12/09 04:32:47;;;;;;;;;;;19.50;94.10;;;;;;6324887;22;19915;-80
2020/12/09 04:35:14;;;;;;;;;;;19.50;94.00;;;;;;6319178;22;19925;-79
2020/12/09 04:37:41;;;;;;;;;;;19.50;94.00;;;;;;6318771;22;19915;-78
2020/12/09 04:40:07;;;;;;;;;;;19.50;94.10;;;;;;6318132;22;20352;-79
2020/12/09 04:42:34;;;;;;;;;;;19.50;94.00;;;;;;6321056;22;19918;-80
2020/12/09 04:45:01;;;;;;;;;;;19.50;94.00;;;;;;6323419;22;19915;-80
2020/12/09 04:47:29;;;;;;;;;;;19.50;94.10;;;;;;6314220;22;19915;-80
2020/12/09 04:50:06;;;;;;;;;;;19.40;94.20;;;;;;6307954;22;19914;-80
2020/12/09 04:52:47;;;;;;;;;;;19.40;94.30;;;;;;6280943;22;19919;-81
2020/12/09 04:55:17;;;;;;;;;;;19.30;94.30;;;;;;6305461;22;19922;-80
2020/12/09 04:57:53;;;;;;;;;;;19.30;94.40;;;;;;6313598;22;19915;-80
2020/12/09 05:00:21;;;;;;;;;;;19.30;94.60;;;;;;6309416;22;19921;-81
2020/12/09 05:02:54;;;;;;;;;;;19.40;94.30;;;;;;6325770;22;19926;-81
2020/12/09 05:05:21;;;;;;;;;;;19.50;94.20;;;;;;6340322;22;19919;-81
2020/12/09 05:07:52;;;;;;;;;;;19.60;94.20;;;;;;6321847;22;19918;-81
2020/12/09 05:10:20;;;;;;;;;;;19.80;94.10;;;;;;6303871;22;19919;-81
2020/12/09 05:12:48;;;;;;;;;;;20.00;93.80;;;;;;6306042;22;19915;-81
2020/12/09 05:15:18;;;;;;;;;;;20.10;93.40;;;;;;6304101;22;19918;-79
2020/12/09 05:17:54;;;;;;;;;;;20.20;93.10;;;;;;6304122;22;19930;-80
2020/12/09 05:20:25;;;;;;;;;;;20.30;92.90;;;;;;6307957;22;20254;-80
2020/12/09 05:22:54;;;;;;;;;;;20.40;92.70;;;;;;6286952;22;19922;-82
2020/12/09 05:25:22;;;;;;;;;;;20.50;92.50;;;;;;6285258;22;19914;-81
2020/12/09 05:27:49;;;;;;;;;;;20.60;92.30;;;;;;6314403;22;19925;-80
2020/12/09 05:30:35;;;;;;;;;;;20.70;92.00;;;;;;6312706;22;19922;-80
2020/12/09 05:33:01;;;;;;;;;;;20.80;91.80;;;;;;6324167;22;19919;-79
2020/12/09 05:35:28;;;;;;;;;;;21.00;91.60;;;;;;6321656;22;19915;-81
2020/12/09 05:38:07;;;;;;;;;;;21.00;91.30;;;;;;6329688;22;19921;-81
2020/12/09 05:40:34;;;;;;;;;;;21.10;91.10;;;;;;6300241;22;20293;-82
2020/12/09 05:43:01;;;;;;;;;;;21.20;91.00;;;;;;6310331;22;19915;-78
2020/12/09 05:45:27;;;;;;;;;;;21.30;90.90;;;;;;6318622;22;19915;-81
2020/12/09 05:48:13;;;;;;;;;;;21.30;90.70;;;;;;6322003;22;19914;-80
2020/12/09 05:50:44;;;;;;;;;;;21.40;90.70;;;;;;6321671;22;19914;-79
2020/12/09 05:53:18;;;;;;;;;;;21.50;90.50;;;;;;6332926;22;19921;-79
2020/12/09 05:55:45;;;;;;;;;;;21.60;90.30;;;;;;6324917;22;19919;-79
2020/12/09 05:58:25;;;;;;;;;;;21.70;90.20;;;;;;6327810;22;19919;-80
2020/12/09 06:01:22;;;;;;;;;;;21.80;90.00;;;;;;6334445;22;19915;-80
2020/12/09 06:03:56;;;;;;;;;;;22.00;89.70;;;;;;6281470;22;19919;-80
2020/12/09 06:06:27;;;;;;;;;;;22.10;89.30;;;;;;6310754;22;19934;-80
2020/12/09 06:09:00;;;;;;;;;;;22.10;89.00;;;;;;6304384;22;19915;-79
2020/12/09 06:11:28;;;;;;;;;;;22.20;88.70;;;;;;6332932;22;19918;-80
2020/12/09 06:13:58;;;;;;;;;;;22.30;89.00;;;;;;6305816;22;19903;-83
2020/12/09 06:16:25;;;;;;;;;;;22.40;89.70;;;;;;6305985;22;20030;-81
2020/12/09 06:18:53;;;;;;;;;;;22.50;89.20;;;;;;6331769;22;19946;-79
2020/12/09 06:24:56;;;;;;;;;;;22.60;77.90;;;;;;6332109;22;19942;-82
2020/12/09 06:27:28;;;;;;;;;;;22.60;82.20;;;;;;6303090;22;19918;-82
2020/12/09 06:29:58;;;;;;;;;;;22.70;83.30;;;;;;6329849;22;19947;-80
2020/12/09 06:32:26;;;;;;;;;;;22.60;83.70;;;;;;6341593;22;19947;-81
2020/12/09 06:35:06;;;;;;;;;;;22.50;84.10;;;;;;6329984;22;19955;-80
2020/12/09 06:37:33;;;;;;;;;;;22.50;82.30;;;;;;6328937;22;20377;-83
2020/12/09 06:40:06;;;;;;;;;;;22.50;84.30;;;;;;6305147;22;19918;-82
2020/12/09 06:42:45;;;;;;;;;;;22.50;83.30;;;;;;6339909;22;19921;-80
2020/12/09 06:45:14;;;;;;;;;;;22.40;84.20;;;;;;6337020;22;19925;-79
2020/12/09 06:47:40;;;;;;;;;;;22.40;85.70;;;;;;6328273;22;19914;-79
2020/12/09 06:50:26;;;;;;;;;;;22.40;89.20;;;;;;6323244;22;19925;-80
2020/12/09 06:53:10;;;;;;;;;;;22.30;90.70;;;;;;6327206;22;19918;-79
2020/12/09 06:55:37;;;;;;;;;;;22.30;86.10;;;;;;6315176;22;19925;-78
2020/12/09 06:58:22;;;;;;;;;;;22.40;83.20;;;;;;6318178;22;19921;-80
2020/12/09 07:00:59;;;;;;;;;;;21.70;72.40;;;;;;6333103;22;19919;-79
2020/12/09 07:03:26;;;;;;;;;;;20.40;67.40;;;;;;6315600;22;19945;-79
2020/12/09 07:05:54;;;;;;;;;;;19.50;69.10;;;;;;6312671;22;20205;-79
2020/12/09 07:08:20;;;;;;;;;;;19.10;70.00;;;;;;6311579;22;19922;-78
2020/12/09 07:10:47;;;;;;;;;;;19.60;77.70;;;;;;6305248;22;20230;-79
2020/12/09 07:13:18;;;;;;;;;;;20.00;81.10;;;;;;6305623;22;19919;-77
2020/12/09 07:15:49;;;;;;;;;;;20.40;81.70;;;;;;6306557;22;19930;-79
2020/12/09 07:18:16;;;;;;;;;;;20.70;80.40;;;;;;6320495;22;19945;-80
2020/12/09 07:20:43;;;;;;;;;;;21.10;79.30;;;;;;6313050;22;19914;-80
2020/12/09 07:23:11;;;;;;;;;;;21.50;77.60;;;;;;6289663;22;19915;-78
2020/12/09 07:25:38;;;;;;;;;;;21.80;76.80;;;;;;6316583;22;20234;-80
2020/12/09 07:28:05;;;;;;;;;;;22.00;76.20;;;;;;6313135;22;19921;-81
2020/12/09 07:30:33;;;;;;;;;;;22.20;76.50;;;;;;6311848;22;19915;-80
2020/12/09 07:33:00;;;;;;;;;;;22.20;76.50;;;;;;6312111;22;20342;-82
2020/12/09 07:35:27;;;;;;;;;;;22.30;76.80;;;;;;6316046;22;19922;-83
2020/12/09 07:37:59;;;;;;;;;;;22.30;77.10;;;;;;6334199;22;19946;-86
2020/12/09 07:48:33;;;;;;;;;;;22.50;77.80;;;;;;6330084;22;19921;-82
2020/12/09 07:52:03;;;;;;;;;;;;;;;;;;;;;
2020/12/09 07:55:31;;;;;;;;;;;22.40;79.20;;;;;;6252523;23;19908;-82
2020/12/09 07:58:44;;;;;;;;;;;22.30;79.20;;;;;;6225468;23;20349;-82
2020/12/09 08:01:29;;;;;;;;;;;22.30;79.60;;;;;;6225868;23;19991;-82
2020/12/09 08:07:33;;;;;;;;;;;22.30;79.90;;;;;;6234341;23;19907;-84
2020/12/09 08:10:47;;;;;;;;;;;22.40;80.00;;;;;;6190695;23;19916;-82
2020/12/09 08:14:11;;;;;;;;;;;22.40;80.20;;;;;;6196110;23;20383;-82
2020/12/09 08:17:02;;;;;;;;;;;22.30;80.40;;;;;;6132884;23;20228;-80
2020/12/09 08:23:56;;;;;;;;;;;22.30;80.80;;;;;;6185951;23;19946;-81
2020/12/09 08:26:30;;;;;;;;;;;22.20;80.90;;;;;;6207917;23;20000;-81
2020/12/09 08:28:59;;;;;;;;;;;22.20;81.20;;;;;;6210517;23;19926;-83
2020/12/09 08:32:13;;;;;;;;;;;22.20;81.40;;;;;;6239911;23;19926;-82
2020/12/09 08:35:47;;;;;;;;;;;22.20;81.60;;;;;;6153784;23;19931;-82
2020/12/09 08:38:24;;;;;;;;;;;22.20;79.30;;;;;;6163785;23;20101;-82
2020/12/09 08:55:09;;;;;;;;;;;22.00;68.10;;;;;;6316246;22;19915;-80
2020/12/09 08:57:43;;;;;;;;;;;21.90;70.30;;;;;;6307625;22;19914;-84
2020/12/09 09:04:42;;;;;;;;;;;21.90;73.10;;;;;;6105744;23;19925;-82
2020/12/09 09:07:14;;;;;;;;;;;22.00;74.40;;;;;;6203707;23;19920;-80
2020/12/09 09:14:15;;;;;;;;;;;22.00;75.90;;;;;;6327014;22;19917;-86
2020/12/09 09:17:16;;;;;;;;;;;22.10;76.20;;;;;;6310556;22;19913;-82
2020/12/09 09:20:06;;;;;;;;;;;22.10;78.00;;;;;;6286862;22;19918;-83
2020/12/09 09:22:37;;;;;;;;;;;22.00;71.00;;;;;;6278814;22;20353;-82
2020/12/09 09:25:08;;;;;;;;;;;22.00;72.50;;;;;;6307615;22;19926;-81
2020/12/09 09:27:35;;;;;;;;;;;22.00;72.60;;;;;;6279827;22;19938;-82
2020/12/09 09:30:05;;;;;;;;;;;21.90;70.40;;;;;;6310383;22;19925;-82
2020/12/09 09:33:37;;;;;;;;;;;21.90;71.80;;;;;;6178907;23;19916;-79
2020/12/09 09:36:06;;;;;;;;;;;22.00;73.90;;;;;;6156018;23;20332;-80
2020/12/09 09:38:46;;;;;;;;;;;22.00;73.90;;;;;;6155902;23;20448;-81
2020/12/09 09:41:28;;;;;;;;;;;22.00;73.90;;;;;;6130377;23;19935;-82
2020/12/09 09:44:32;;;;;;;;;;;22.00;73.70;;;;;;6109011;23;19972;-84
2020/12/09 09:50:57;;;;;;;;;;;22.00;74.80;;;;;;6167994;23;19931;-84
2020/12/09 09:54:04;;;;;;;;;;;21.90;75.30;;;;;;6132177;23;19927;-84
2020/12/09 09:56:31;;;;;;;;;;;21.90;75.40;;;;;;6144172;23;19935;-82
2020/12/09 09:58:59;;;;;;;;;;;21.80;75.80;;;;;;6171383;23;19916;-83
2020/12/09 10:01:39;;;;;;;;;;;21.80;76.20;;;;;;6152280;23;19905;-86
2020/12/09 10:04:12;;;;;;;;;;;21.70;76.50;;;;;;6214734;22;19927;-82
2020/12/09 10:06:55;;;;;;;;;;;21.70;76.80;;;;;;6294335;22;19942;-85
2020/12/09 10:13:39;;;;;;;;;;;21.60;78.00;;;;;;6142826;23;20009;-84
2020/12/09 10:20:18;;;;;;;;;;;21.60;78.50;;;;;;6110649;23;19910;-83
2020/12/09 10:30:31;;;;;;;;;;;21.50;79.70;;;;;;6267591;22;19919;-83
2020/12/09 10:33:05;;;;;;;;;;;21.50;80.00;;;;;;6262841;22;19923;-83
2020/12/09 10:35:34;;;;;;;;;;;21.50;79.00;;;;;;6297507;22;19911;-85
2020/12/09 10:38:01;;;;;;;;;;;21.50;77.10;;;;;;6291937;22;19919;-83
2020/12/09 10:43:54;;;;;;;;;;;21.50;73.50;;;;;;6293728;22;19915;-84
2020/12/09 10:47:01;;;;;;;;;;;21.60;72.80;;;;;;6288222;22;19942;-85
2020/12/09 10:53:30;;;;;;;;;;;21.60;68.50;;;;;;6295175;22;19921;-83
2020/12/09 10:56:01;;;;;;;;;;;21.70;65.10;;;;;;6291941;22;19935;-80
2020/12/09 10:58:31;;;;;;;;;;;21.60;67.50;;;;;;6282447;22;20153;-84
2020/12/09 11:01:20;;;;;;;;;;;;;;;;;;;;;
2020/12/09 11:04:04;;;;;;;;;;;21.40;68.60;;;;;;6282623;22;19967;-83
2020/12/09 11:06:44;;;;;;;;;;;21.40;69.50;;;;;;6284126;22;19919;-83
2020/12/09 11:10:32;;;;;;;;;;;21.30;70.20;;;;;;6198182;23;19926;-84
2020/12/09 11:13:18;;;;;;;;;;;21.10;71.10;;;;;;6164419;23;19920;-82
2020/12/09 11:16:01;;;;;;;;;;;21.10;72.00;;;;;;6199243;23;20571;-81
2020/12/09 11:18:28;;;;;;;;;;;21.00;72.80;;;;;;6176177;23;19904;-82
2020/12/09 11:21:09;;;;;;;;;;;20.90;73.40;;;;;;6178102;23;19918;-80
2020/12/09 11:23:39;;;;;;;;;;;20.90;74.10;;;;;;6169825;23;19924;-83
2020/12/09 11:26:07;;;;;;;;;;;20.80;74.40;;;;;;6186432;23;20023;-84
2020/12/09 11:28:52;;;;;;;;;;;20.80;74.90;;;;;;6256289;22;19919;-82
2020/12/09 11:32:14;;;;;;;;;;;20.70;75.20;;;;;;6278044;22;19915;-82
2020/12/09 11:34:43;;;;;;;;;;;20.70;75.70;;;;;;6290547;22;19922;-82
2020/12/09 11:37:12;;;;;;;;;;;20.70;76.00;;;;;;6284375;22;19925;-79
2020/12/09 11:39:39;;;;;;;;;;;20.70;76.50;;;;;;6285283;22;19923;-82
2020/12/09 11:42:09;;;;;;;;;;;20.90;70.20;;;;;;6256360;22;19919;-83
2020/12/09 11:44:36;;;;;;;;;;;21.10;68.90;;;;;;6281792;22;19915;-84
2020/12/09 11:47:06;;;;;;;;;;;21.10;65.20;;;;;;6281079;22;19915;-82
2020/12/09 11:49:36;;;;;;;;;;;21.10;62.30;;;;;;6280521;22;19919;-83
2020/12/09 11:52:03;;;;;;;;;;;21.10;61.10;;;;;;6279594;22;19915;-83
2020/12/09 11:54:31;;;;;;;;;;;21.00;61.90;;;;;;6251835;22;19915;-81
2020/12/09 11:56:58;;;;;;;;;;;20.70;64.90;;;;;;6253986;22;19945;-83
2020/12/09 11:59:28;;;;;;;;;;;20.60;66.30;;;;;;6281053;22;19919;-86
2020/12/09 12:05:10;;;;;;;;;;;20.40;67.90;;;;;;6264440;22;19923;-86
2020/12/09 12:07:39;;;;;;;;;;;20.30;68.80;;;;;;6284662;22;19919;-83
2020/12/09 12:10:13;;;;;;;;;;;20.40;69.30;;;;;;6257240;22;19919;-83
2020/12/09 12:13:24;;;;;;;;;;;20.30;69.90;;;;;;6280951;22;19925;-84
2020/12/09 12:16:17;;;;;;;;;;;20.40;70.30;;;;;;6231424;22;20278;-84
2020/12/09 12:18:54;;;;;;;;;;;20.40;70.70;;;;;;6291681;22;20335;-86
2020/12/09 12:21:33;;;;;;;;;;;20.40;70.90;;;;;;6253981;23;19920;-79
2020/12/09 12:24:10;;;;;;;;;;;20.50;71.70;;;;;;6259128;22;19939;-83
2020/12/09 12:27:29;;;;;;;;;;;20.50;72.00;;;;;;6296052;22;19961;-82
2020/12/09 12:30:29;;;;;;;;;;;20.40;72.00;;;;;;6249103;22;19939;-85
2020/12/09 12:33:06;;;;;;;;;;;20.40;72.20;;;;;;6299474;22;19919;-83
2020/12/09 12:35:56;;;;;;;;;;;20.40;72.40;;;;;;6282742;22;19919;-83
2020/12/09 12:38:55;;;;;;;;;;;20.40;72.50;;;;;;6296405;22;19903;-85
2020/12/09 12:42:38;;;;;;;;;;;20.40;72.80;;;;;;6276989;22;19954;-84
2020/12/09 12:46:28;;;;;;;;;;;;;;;;;;;;;
2020/12/09 12:52:39;;;;;;;;;;;20.80;73.20;;;;;;6044986;23;19946;-86
2020/12/09 12:55:16;;;;;;;;;;;20.90;73.30;;;;;;6034404;23;19962;-84
2020/12/09 12:58:32;;;;;;;;;;;21.00;73.40;;;;;;6034133;23;19922;-86
2020/12/09 13:01:24;;;;;;;;;;;20.90;73.60;;;;;;6034123;23;19961;-86
2020/12/09 13:04:00;;;;;;;;;;;20.90;74.00;;;;;;6043441;23;19906;-85
2020/12/09 13:14:08;;;;;;;;;;;20.70;74.90;;;;;;6259797;22;19903;-84
2020/12/09 13:16:48;;;;;;;;;;;20.60;75.20;;;;;;6295908;22;19929;-85
2020/12/09 13:26:39;;;;;;;;;;;20.50;76.60;;;;;;6119715;23;19927;-86
2020/12/09 13:29:32;;;;;;;;;;;21.00;75.80;;;;;;6298094;22;19909;-81
2020/12/09 13:31:59;;;;;;;;;;;21.30;75.10;;;;;;6257337;22;19915;-81
2020/12/09 13:34:27;;;;;;;;;;;21.50;74.50;;;;;;6251097;22;19919;-80
2020/12/09 13:36:55;;;;;;;;;;;21.80;74.20;;;;;;6280336;22;19926;-83
2020/12/09 13:39:23;;;;;;;;;;;22.20;73.60;;;;;;6203393;22;19919;-83
2020/12/09 13:41:50;;;;;;;;;;;22.30;72.80;;;;;;6261987;22;19915;-80
2020/12/09 13:44:17;;;;;;;;;;;22.50;72.90;;;;;;6268381;22;19904;-79
2020/12/09 13:47:05;;;;;;;;;;;22.60;72.90;;;;;;6269494;22;19903;-80
2020/12/09 13:49:44;;;;;;;;;;;22.70;72.90;;;;;;6258115;22;19922;-81
2020/12/09 13:52:41;;;;;;;;;;;22.80;73.50;;;;;;6262439;22;19923;-82
2020/12/09 13:58:21;;;;;;;;;;;23.10;72.70;;;;;;6263318;22;20324;-79
2020/12/09 14:09:03;;;;;;;;;;;23.40;72.50;;;;;;6162557;23;19938;-82
2020/12/09 14:12:21;;;;;;;;;;;23.50;72.20;;;;;;5986001;23;19929;-82
2020/12/09 14:14:52;;;;;;;;;;;23.60;72.20;;;;;;6133323;23;19916;-83
2020/12/09 14:18:32;;;;;;;;;;;23.50;72.30;;;;;;6110351;23;19999;-80
2020/12/09 14:21:24;;;;;;;;;;;23.30;72.50;;;;;;6045557;23;19918;-82
2020/12/09 14:24:30;;;;;;;;;;;23.20;73.20;;;;;;6028823;23;19926;-81
2020/12/09 14:30:39;;;;;;;;;;;;;;;;;;;;;
2020/12/09 14:34:06;;;;;;;;;;;22.60;75.00;;;;;;6103701;23;19917;-83
2020/12/09 14:40:51;;;;;;;;;;;22.40;76.50;;;;;;6131091;23;19920;-83
2020/12/09 14:47:18;;;;;;;;;;;22.40;76.20;;;;;;6109848;23;20319;-82
2020/12/09 14:50:08;;;;;;;;;;;22.40;76.20;;;;;;6257179;22;19926;-82
2020/12/09 14:53:30;;;;;;;;;;;22.40;76.30;;;;;;6289642;22;19915;-84
2020/12/09 14:56:51;;;;;;;;;;;22.40;76.40;;;;;;6289323;22;19913;-81
2020/12/09 14:59:29;;;;;;;;;;;22.40;76.60;;;;;;6313627;22;19918;-82
2020/12/09 15:02:26;;;;;;;;;;;22.40;76.60;;;;;;6321153;22;19926;-80
2020/12/09 15:05:00;;;;;;;;;;;22.40;76.50;;;;;;6313717;22;19925;-80
2020/12/09 15:08:01;;;;;;;;;;;22.40;76.60;;;;;;6320759;22;19925;-81
2020/12/09 15:18:38;;;;;;;;;;;22.50;76.30;;;;;;6278362;22;19919;-85
2020/12/09 15:21:38;;;;;;;;;;;22.60;76.10;;;;;;6227836;22;19927;-85
2020/12/09 15:24:24;;;;;;;;;;;22.70;75.90;;;;;;6247828;22;19919;-86
2020/12/09 15:27:25;;;;;;;;;;;22.70;75.90;;;;;;6257020;22;20053;-85
2020/12/09 15:46:40;;;;;;;;;;;22.70;76.20;;;;;;6227076;23;19929;-82
2020/12/09 15:50:05;;;;;;;;;;;22.70;76.40;;;;;;6142571;23;19936;-82
2020/12/09 15:56:50;;;;;;;;;;;22.50;77.00;;;;;;6117632;23;19912;-82
2020/12/09 16:00:14;;;;;;;;;;;22.40;77.40;;;;;;6074204;23;19927;-82
2020/12/09 16:03:14;;;;;;;;;;;22.20;77.50;;;;;;6098953;23;19921;-84
2020/12/09 16:06:09;;;;;;;;;;;22.20;77.80;;;;;;6052374;23;19964;-82
2020/12/09 16:09:11;;;;;;;;;;;22.10;77.10;;;;;;6121814;23;19944;-81
2020/12/09 16:22:59;;;;;;;;;;;22.00;72.90;;;;;;6076532;23;19928;-80
2020/12/09 16:30:26;;;;;;;;;;;;;;;;;;;;;
2020/12/09 16:33:59;;;;;;;;;;;21.90;76.00;;;;;;6142319;23;19916;-84
2020/12/09 16:37:33;;;;;;;;;;;21.90;77.80;;;;;;6182871;22;20369;-84
2020/12/09 16:40:51;;;;;;;;;;;21.90;79.40;;;;;;6259716;22;20113;-81
2020/12/09 16:44:15;;;;;;;;;;;;;;;;;;;;;
2020/12/09 16:47:36;;;;;;;;;;;22.00;79.10;;;;;;6288842;22;19909;-82
2020/12/09 16:50:48;;;;;;;;;;;22.10;79.70;;;;;;6331872;22;19925;-81
2020/12/09 16:53:37;;;;;;;;;;;22.10;80.40;;;;;;6297250;22;19919;-84
2020/12/09 17:00:08;;;;;;;;;;;22.40;80.00;;;;;;6308382;22;19925;-81
2020/12/09 17:27:38;;;;;;;;;;;;;;;;;;;;;
2020/12/09 17:41:47;;;;;;;;;;;;;;;;;;;;;
2020/12/09 17:49:22;;;;;;;;;;;;;;;;;;;;;
2020/12/09 17:53:09;;;;;;;;;;;22.60;57.50;;;;;;6084070;23;19905;-81
2020/12/09 17:57:02;;;;;;;;;;;22.50;57.20;;;;;;5958426;23;19907;-82
2020/12/09 18:00:08;;;;;;;;;;;22.40;56.00;;;;;;5948787;24;19911;-81
2020/12/09 18:02:43;;;;;;;;;;;22.30;58.10;;;;;;5960927;24;19910;-82
2020/12/09 18:05:25;;;;;;;;;;;22.20;59.80;;;;;;5956751;24;19915;-81
2020/12/09 18:08:09;;;;;;;;;;;22.20;60.70;;;;;;5971378;24;19909;-79
2020/12/09 18:10:51;;;;;;;;;;;22.30;61.40;;;;;;5973649;24;19925;-80
2020/12/09 18:13:33;;;;;;;;;;;22.30;61.90;;;;;;6002157;23;19918;-81
2020/12/09 18:16:09;;;;;;;;;;;22.30;62.40;;;;;;6002751;23;19928;-82
2020/12/09 18:18:50;;;;;;;;;;;22.30;63.30;;;;;;6044166;23;20358;-81
2020/12/09 18:21:20;;;;;;;;;;;22.20;62.80;;;;;;6019417;23;20298;-82
2020/12/09 18:23:49;;;;;;;;;;;22.00;63.80;;;;;;6040897;23;19927;-79
2020/12/09 18:26:17;;;;;;;;;;;21.90;64.70;;;;;;6182462;22;19922;-79
2020/12/09 18:28:45;;;;;;;;;;;21.90;65.20;;;;;;6293715;22;20352;-81
2020/12/09 18:31:15;;;;;;;;;;;21.90;65.70;;;;;;6267886;22;19966;-80
2020/12/09 18:33:42;;;;;;;;;;;22.00;65.80;;;;;;6296015;22;19913;-79
2020/12/09 18:36:09;;;;;;;;;;;22.00;65.90;;;;;;6294428;22;19903;-79
2020/12/09 18:38:37;;;;;;;;;;;22.10;66.00;;;;;;6283086;22;19915;-82
2020/12/09 18:41:24;;;;;;;;;;;22.20;66.20;;;;;;6259647;22;19915;-82
2020/12/09 18:43:53;;;;;;;;;;;22.20;66.40;;;;;;6261177;22;19919;-81
2020/12/09 18:46:50;;;;;;;;;;;22.20;66.90;;;;;;6258383;22;20326;-82
2020/12/09 18:49:43;;;;;;;;;;;22.20;67.20;;;;;;6256866;22;19919;-80
2020/12/09 18:52:14;;;;;;;;;;;22.10;67.60;;;;;;6313520;22;19919;-82
2020/12/09 18:54:44;;;;;;;;;;;22.00;68.00;;;;;;6314720;22;19925;-81
2020/12/09 18:57:13;;;;;;;;;;;22.00;68.20;;;;;;6329540;22;19927;-81
2020/12/09 19:02:43;;;;;;;;;;;22.20;68.40;;;;;;6311408;22;19937;-81